sensor_id;sensor_type;location;lat;lon;timestamp;pressure;altitude;pressure_sealevel;temperature;humidity
68301;BME280;55146;47.468;18.806;2023-02-24T00:01:14;99798.06;;;9.07;62.02
68301;BME280;55146;47.468;18.806;2023-02-24T00:03:48;99801.06;;;9.06;61.92
68301;BME280;55146;47.468;18.806;2023-02-24T00:06:13;99803.50;;;8.97;62.30
68301;BME280;55146;47.468;18.806;2023-02-24T00:08:39;99797.75;;;9.04;62.24
68301;BME280;55146;47.468;18.806;2023-02-24T00:11:11;99792.00;;;9.10;62.02
68301;BME280;55146;47.468;18.806;2023-02-24T00:13:40;99795.00;;;9.09;62.49
68301;BME280;55146;47.468;18.806;2023-02-24T00:16:12;99786.22;;;9.02;62.98
68301;BME280;55146;47.468;18.806;2023-02-24T00:18:38;99792.53;;;9.02;63.32
68301;BME280;55146;47.468;18.806;2023-02-24T00:21:15;99796.94;;;9.08;63.58
68301;BME280;55146;47.468;18.806;2023-02-24T00:23:45;99794.13;;;8.83;64.87
68301;BME280;55146;47.468;18.806;2023-02-24T00:26:13;99785.63;;;8.79;65.52
68301;BME280;55146;47.468;18.806;2023-02-24T00:28:40;99782.06;;;8.79;65.99
68301;BME280;55146;47.468;18.806;2023-02-24T00:31:10;99789.16;;;8.65;66.06
68301;BME280;55146;47.468;18.806;2023-02-24T00:33:39;99785.03;;;8.57;66.45
68301;BME280;55146;47.468;18.806;2023-02-24T00:38:35;99778.63;;;8.36;68.00
68301;BME280;55146;47.468;18.806;2023-02-24T00:41:07;99769.06;;;8.39;68.38
68301;BME280;55146;47.468;18.806;2023-02-24T00:43:32;99763.53;;;8.34;68.68
68301;BME280;55146;47.468;18.806;2023-02-24T00:46:02;99762.53;;;8.50;68.39
68301;BME280;55146;47.468;18.806;2023-02-24T00:48:28;99752.88;;;8.32;69.04
68301;BME280;55146;47.468;18.806;2023-02-24T00:50:53;99756.34;;;8.28;69.12
68301;BME280;55146;47.468;18.806;2023-02-24T00:53:19;99752.25;;;8.25;69.52
68301;BME280;55146;47.468;18.806;2023-02-24T00:55:44;99747.38;;;8.32;69.51
68301;BME280;55146;47.468;18.806;2023-02-24T00:58:10;99747.91;;;8.34;69.73
68301;BME280;55146;47.468;18.806;2023-02-24T01:00:35;99748.44;;;8.26;70.05
68301;BME280;55146;47.468;18.806;2023-02-24T01:03:02;99740.69;;;8.13;69.83
68301;BME280;55146;47.468;18.806;2023-02-24T01:05:27;99737.69;;;8.15;70.44
68301;BME280;55146;47.468;18.806;2023-02-24T01:07:53;99733.56;;;8.17;70.34
68301;BME280;55146;47.468;18.806;2023-02-24T01:10:18;99731.91;;;8.06;70.11
68301;BME280;55146;47.468;18.806;2023-02-24T01:12:46;99728.69;;;8.24;70.24
68301;BME280;55146;47.468;18.806;2023-02-24T01:15:19;99729.25;;;8.26;69.58
68301;BME280;55146;47.468;18.806;2023-02-24T01:17:45;99731.16;;;8.26;70.22
68301;BME280;55146;47.468;18.806;2023-02-24T01:20:12;99725.34;;;8.12;70.14
68301;BME280;55146;47.468;18.806;2023-02-24T01:22:50;99714.38;;;8.12;69.87
68301;BME280;55146;47.468;18.806;2023-02-24T01:25:20;99714.41;;;8.17;69.78
68301;BME280;55146;47.468;18.806;2023-02-24T01:27:46;99711.66;;;8.17;70.00
68301;BME280;55146;47.468;18.806;2023-02-24T01:30:12;99698.22;;;8.16;69.64
68301;BME280;55146;47.468;18.806;2023-02-24T01:32:41;99699.06;;;8.16;69.74
68301;BME280;55146;47.468;18.806;2023-02-24T01:35:07;99702.09;;;8.20;69.53
68301;BME280;55146;47.468;18.806;2023-02-24T01:37:33;99696.63;;;8.20;69.53
68301;BME280;55146;47.468;18.806;2023-02-24T01:39:58;99686.47;;;8.20;69.27
68301;BME280;55146;47.468;18.806;2023-02-24T01:42:28;99684.84;;;8.24;69.34
68301;BME280;55146;47.468;18.806;2023-02-24T01:45:15;99683.44;;;8.17;69.37
68301;BME280;55146;47.468;18.806;2023-02-24T01:47:41;99681.25;;;8.13;69.48
68301;BME280;55146;47.468;18.806;2023-02-24T01:50:08;99673.28;;;8.12;69.76
68301;BME280;55146;47.468;18.806;2023-02-24T01:52:36;99670.25;;;8.08;70.19
68301;BME280;55146;47.468;18.806;2023-02-24T01:55:08;99670.25;;;8.08;70.07
68301;BME280;55146;47.468;18.806;2023-02-24T01:57:36;99662.91;;;8.14;69.96
68301;BME280;55146;47.468;18.806;2023-02-24T02:00:05;99665.41;;;8.26;69.64
68301;BME280;55146;47.468;18.806;2023-02-24T02:02:47;99661.00;;;8.25;69.44
68301;BME280;55146;47.468;18.806;2023-02-24T02:05:16;99666.16;;;8.06;69.96
68301;BME280;55146;47.468;18.806;2023-02-24T02:07:43;99660.44;;;8.18;69.58
68301;BME280;55146;47.468;18.806;2023-02-24T02:10:12;99660.69;;;8.11;69.54
68301;BME280;55146;47.468;18.806;2023-02-24T02:12:39;99660.69;;;8.06;69.86
68301;BME280;55146;47.468;18.806;2023-02-24T02:15:10;99654.38;;;8.10;69.91
68301;BME280;55146;47.468;18.806;2023-02-24T02:34:53;99647.31;;;8.20;68.69
68301;BME280;55146;47.468;18.806;2023-02-24T02:40:20;99640.75;;;8.26;69.49
68301;BME280;55146;47.468;18.806;2023-02-24T02:43:02;99641.25;;;8.23;69.53
68301;BME280;55146;47.468;18.806;2023-02-24T02:45:35;99637.13;;;8.15;70.04
68301;BME280;55146;47.468;18.806;2023-02-24T02:48:15;99641.00;;;8.24;70.20
68301;BME280;55146;47.468;18.806;2023-02-24T02:56:18;99631.16;;;8.33;69.21
68301;BME280;55146;47.468;18.806;2023-02-24T02:58:50;99616.38;;;8.34;69.78
68301;BME280;55146;47.468;18.806;2023-02-24T03:01:20;99619.94;;;8.40;70.12
68301;BME280;55146;47.468;18.806;2023-02-24T03:03:49;99615.84;;;8.37;69.97
68301;BME280;55146;47.468;18.806;2023-02-24T03:06:20;99623.00;;;8.38;70.29
68301;BME280;55146;47.468;18.806;2023-02-24T03:08:55;99608.47;;;8.33;70.83
68301;BME280;55146;47.468;18.806;2023-02-24T03:11:21;99614.13;;;8.21;70.82
68301;BME280;55146;47.468;18.806;2023-02-24T03:13:50;99608.38;;;8.18;70.76
68301;BME280;55146;47.468;18.806;2023-02-24T03:16:18;99608.94;;;8.20;70.82
68301;BME280;55146;47.468;18.806;2023-02-24T03:18:51;99610.88;;;8.24;70.66
68301;BME280;55146;47.468;18.806;2023-02-24T03:21:27;99610.63;;;8.31;70.79
68301;BME280;55146;47.468;18.806;2023-02-24T03:23:57;99610.28;;;8.17;70.68
68301;BME280;55146;47.468;18.806;2023-02-24T03:26:45;99611.69;;;8.25;71.07
68301;BME280;55146;47.468;18.806;2023-02-24T03:31:59;99602.09;;;8.22;70.56
68301;BME280;55146;47.468;18.806;2023-02-24T03:34:53;99608.38;;;8.12;70.59
68301;BME280;55146;47.468;18.806;2023-02-24T03:37:21;99603.16;;;8.06;70.70
68301;BME280;55146;47.468;18.806;2023-02-24T03:39:52;99604.25;;;8.05;70.95
68301;BME280;55146;47.468;18.806;2023-02-24T03:42:19;99606.44;;;8.08;70.84
68301;BME280;55146;47.468;18.806;2023-02-24T03:44:45;99596.28;;;8.03;71.21
68301;BME280;55146;47.468;18.806;2023-02-24T03:47:12;99588.28;;;7.82;71.94
68301;BME280;55146;47.468;18.806;2023-02-24T03:49:38;99589.41;;;7.86;71.85
68301;BME280;55146;47.468;18.806;2023-02-24T04:01:11;99584.50;;;7.98;71.20
68301;BME280;55146;47.468;18.806;2023-02-24T04:03:29;99576.03;;;8.04;71.52
68301;BME280;55146;47.468;18.806;2023-02-24T04:08:27;99563.12;;;7.90;71.56
68301;BME280;55146;47.468;18.806;2023-02-24T04:11:03;99549.69;;;7.83;71.95
68301;BME280;55146;47.468;18.806;2023-02-24T04:13:42;99544.22;;;7.88;71.73
68301;BME280;55146;47.468;18.806;2023-02-24T04:16:13;99548.00;;;7.72;72.37
68301;BME280;55146;47.468;18.806;2023-02-24T04:18:44;99544.22;;;7.83;72.12
68301;BME280;55146;47.468;18.806;2023-02-24T04:21:12;99543.06;;;7.59;72.89
68301;BME280;55146;47.468;18.806;2023-02-24T04:23:41;99527.97;;;7.51;73.47
68301;BME280;55146;47.468;18.806;2023-02-24T04:26:11;99530.97;;;7.50;73.63
68301;BME280;55146;47.468;18.806;2023-02-24T04:28:38;99527.97;;;7.51;73.52
68301;BME280;55146;47.468;18.806;2023-02-24T04:31:08;99530.72;;;7.51;73.48
68301;BME280;55146;47.468;18.806;2023-02-24T04:33:36;99527.47;;;7.69;72.82
68301;BME280;55146;47.468;18.806;2023-02-24T04:36:03;99524.44;;;7.66;73.03
68301;BME280;55146;47.468;18.806;2023-02-24T04:38:29;99522.81;;;7.65;73.08
68301;BME280;55146;47.468;18.806;2023-02-24T04:40:54;99527.72;;;7.63;73.38
68301;BME280;55146;47.468;18.806;2023-02-24T04:43:21;99530.16;;;7.59;73.52
68301;BME280;55146;47.468;18.806;2023-02-24T04:45:47;99522.78;;;7.60;73.42
68301;BME280;55146;47.468;18.806;2023-02-24T04:48:12;99526.06;;;7.57;73.88
68301;BME280;55146;47.468;18.806;2023-02-24T04:50:41;99520.59;;;7.52;74.18
68301;BME280;55146;47.468;18.806;2023-02-24T04:53:10;99517.53;;;7.48;74.46
68301;BME280;55146;47.468;18.806;2023-02-24T04:55:38;99516.19;;;7.51;74.35
68301;BME280;55146;47.468;18.806;2023-02-24T04:58:09;99515.41;;;7.60;74.32
68301;BME280;55146;47.468;18.806;2023-02-24T05:00:35;99518.97;;;7.66;73.93
68301;BME280;55146;47.468;18.806;2023-02-24T05:03:04;99506.41;;;7.70;73.53
68301;BME280;55146;47.468;18.806;2023-02-24T05:05:30;99503.66;;;7.65;73.54
68301;BME280;55146;47.468;18.806;2023-02-24T05:08:08;99495.16;;;7.61;73.82
68301;BME280;55146;47.468;18.806;2023-02-24T05:10:42;99494.88;;;7.63;73.92
68301;BME280;55146;47.468;18.806;2023-02-24T05:13:12;99495.97;;;7.57;74.20
68301;BME280;55146;47.468;18.806;2023-02-24T05:15:40;99491.31;;;7.52;74.32
68301;BME280;55146;47.468;18.806;2023-02-24T05:18:07;99485.00;;;7.52;74.49
68301;BME280;55146;47.468;18.806;2023-02-24T05:20:37;99487.50;;;7.63;74.13
68301;BME280;55146;47.468;18.806;2023-02-24T05:23:29;99485.84;;;7.62;74.37
68301;BME280;55146;47.468;18.806;2023-02-24T05:25:59;99499.47;;;7.47;75.12
68301;BME280;55146;47.468;18.806;2023-02-24T05:28:25;99491.84;;;7.59;74.83
68301;BME280;55146;47.468;18.806;2023-02-24T05:30:53;99493.75;;;7.49;75.35
68301;BME280;55146;47.468;18.806;2023-02-24T05:33:20;99494.28;;;7.46;75.66
68301;BME280;55146;47.468;18.806;2023-02-24T05:35:49;99496.47;;;7.49;75.65
68301;BME280;55146;47.468;18.806;2023-02-24T05:38:17;99495.66;;;7.53;75.58
68301;BME280;55146;47.468;18.806;2023-02-24T05:40:47;99496.47;;;7.49;75.68
68301;BME280;55146;47.468;18.806;2023-02-24T05:43:14;99489.09;;;7.44;75.98
68301;BME280;55146;47.468;18.806;2023-02-24T05:45:43;99484.94;;;7.37;76.31
68301;BME280;55146;47.468;18.806;2023-02-24T05:48:10;99484.19;;;7.46;76.19
68301;BME280;55146;47.468;18.806;2023-02-24T05:50:36;99480.06;;;7.54;76.05
68301;BME280;55146;47.468;18.806;2023-02-24T05:53:03;99480.63;;;7.61;75.78
68301;BME280;55146;47.468;18.806;2023-02-24T05:55:28;99482.53;;;7.55;75.90
68301;BME280;55146;47.468;18.806;2023-02-24T05:57:56;99482.53;;;7.55;75.92
68301;BME280;55146;47.468;18.806;2023-02-24T06:00:23;99480.31;;;7.42;76.33
68301;BME280;55146;47.468;18.806;2023-02-24T06:02:50;99487.75;;;7.47;76.49
68301;BME280;55146;47.468;18.806;2023-02-24T06:05:18;99472.44;;;7.61;76.27
68301;BME280;55146;47.468;18.806;2023-02-24T06:07:54;99478.47;;;7.58;76.32
68301;BME280;55146;47.468;18.806;2023-02-24T06:10:27;99482.28;;;7.57;76.29
68301;BME280;55146;47.468;18.806;2023-02-24T06:12:52;99491.84;;;7.59;76.33
68301;BME280;55146;47.468;18.806;2023-02-24T06:15:17;99486.69;;;7.68;76.08
68301;BME280;55146;47.468;18.806;2023-02-24T06:17:43;99488.91;;;7.76;75.95
68301;BME280;55146;47.468;18.806;2023-02-24T06:20:09;99486.16;;;7.81;75.87
68301;BME280;55146;47.468;18.806;2023-02-24T06:22:39;99482.87;;;7.79;75.26
68301;BME280;55146;47.468;18.806;2023-02-24T06:25:08;99485.84;;;7.67;75.64
68301;BME280;55146;47.468;18.806;2023-02-24T06:27:34;99489.69;;;7.66;75.82
68301;BME280;55146;47.468;18.806;2023-02-24T06:30:03;99484.75;;;7.63;75.88
68301;BME280;55146;47.468;18.806;2023-02-24T06:32:34;99491.06;;;7.74;75.89
68301;BME280;55146;47.468;18.806;2023-02-24T06:35:00;99485.91;;;7.83;76.08
68301;BME280;55146;47.468;18.806;2023-02-24T06:37:26;99477.69;;;7.83;75.65
68301;BME280;55146;47.468;18.806;2023-02-24T06:39:51;99485.59;;;7.79;75.73
68301;BME280;55146;47.468;18.806;2023-02-24T06:42:16;99475.47;;;7.85;75.88
68301;BME280;55146;47.468;18.806;2023-02-24T06:44:42;99476.03;;;7.82;76.17
68301;BME280;55146;47.468;18.806;2023-02-24T06:47:11;99474.94;;;7.93;75.62
68301;BME280;55146;47.468;18.806;2023-02-24T06:49:42;99470.81;;;7.90;75.81
68301;BME280;55146;47.468;18.806;2023-02-24T06:52:07;99476.31;;;7.85;75.95
68301;BME280;55146;47.468;18.806;2023-02-24T06:54:33;99477.69;;;7.93;75.79
68301;BME280;55146;47.468;18.806;2023-02-24T06:57:00;99477.69;;;7.93;75.79
68301;BME280;55146;47.468;18.806;2023-02-24T06:59:28;99473.31;;;7.97;75.87
68301;BME280;55146;47.468;18.806;2023-02-24T07:01:57;99466.75;;;8.08;75.38
68301;BME280;55146;47.468;18.806;2023-02-24T07:04:24;99463.19;;;8.07;75.50
68301;BME280;55146;47.468;18.806;2023-02-24T07:06:55;99464.03;;;8.08;75.41
68301;BME280;55146;47.468;18.806;2023-02-24T07:09:24;99466.72;;;7.98;75.98
68301;BME280;55146;47.468;18.806;2023-02-24T07:11:52;99462.09;;;7.98;76.04
68301;BME280;55146;47.468;18.806;2023-02-24T07:14:22;99461.81;;;8.05;75.82
68301;BME280;55146;47.468;18.806;2023-02-24T07:16:51;99457.97;;;8.06;75.89
68301;BME280;55146;47.468;18.806;2023-02-24T07:19:20;99450.84;;;8.10;75.89
68301;BME280;55146;47.468;18.806;2023-02-24T07:21:46;99446.47;;;8.04;76.04
68301;BME280;55146;47.468;18.806;2023-02-24T07:24:16;99456.34;;;8.25;75.25
68301;BME280;55146;47.468;18.806;2023-02-24T07:27:09;99440.72;;;8.26;75.65
68301;BME280;55146;47.468;18.806;2023-02-24T07:29:36;99450.34;;;8.38;75.28
68301;BME280;55146;47.468;18.806;2023-02-24T07:32:04;99443.47;;;8.51;74.96
68301;BME280;55146;47.468;18.806;2023-02-24T07:34:30;99440.69;;;8.61;73.97
68301;BME280;55146;47.468;18.806;2023-02-24T07:36:56;99443.97;;;8.68;73.82
68301;BME280;55146;47.468;18.806;2023-02-24T07:39:22;99442.03;;;8.74;73.63
68301;BME280;55146;47.468;18.806;2023-02-24T07:41:49;99447.25;;;8.65;73.77
68301;BME280;55146;47.468;18.806;2023-02-24T07:44:16;99442.31;;;8.67;74.07
68301;BME280;55146;47.468;18.806;2023-02-24T07:46:43;99434.63;;;8.79;73.75
68301;BME280;55146;47.468;18.806;2023-02-24T07:49:12;99436.78;;;8.87;72.95
68301;BME280;55146;47.468;18.806;2023-02-24T07:51:39;99432.44;;;8.81;73.35
68301;BME280;55146;47.468;18.806;2023-02-24T07:54:05;99433.78;;;8.79;73.27
68301;BME280;55146;47.468;18.806;2023-02-24T07:56:32;99431.84;;;8.84;73.53
68301;BME280;55146;47.468;18.806;2023-02-24T07:59:05;99421.44;;;8.86;73.47
68301;BME280;55146;47.468;18.806;2023-02-24T08:01:35;99425.53;;;8.94;73.71
68301;BME280;55146;47.468;18.806;2023-02-24T08:04:06;99424.69;;;8.99;73.51
68301;BME280;55146;47.468;18.806;2023-02-24T08:06:38;99425.50;;;8.99;73.10
68301;BME280;55146;47.468;18.806;2023-02-24T08:09:08;99423.81;;;9.13;72.73
68301;BME280;55146;47.468;18.806;2023-02-24T08:14:13;99417.94;;;9.30;72.44
68301;BME280;55146;47.468;18.806;2023-02-24T08:16:43;99412.47;;;9.30;72.52
68301;BME280;55146;47.468;18.806;2023-02-24T08:19:13;99419.56;;;9.36;71.86
68301;BME280;55146;47.468;18.806;2023-02-24T08:21:44;99415.72;;;9.32;72.18
68301;BME280;55146;47.468;18.806;2023-02-24T08:24:17;99408.56;;;9.36;72.55
68301;BME280;55146;47.468;18.806;2023-02-24T08:26:44;99407.19;;;9.39;72.19
68301;BME280;55146;47.468;18.806;2023-02-24T08:29:11;99407.97;;;9.49;72.29
68301;BME280;55146;47.468;18.806;2023-02-24T08:31:36;99399.03;;;9.67;71.49
68301;BME280;55146;47.468;18.806;2023-02-24T08:34:02;99402.25;;;9.80;71.38
68301;BME280;55146;47.468;18.806;2023-02-24T08:36:27;99400.34;;;10.09;70.33
68301;BME280;55146;47.468;18.806;2023-02-24T08:38:53;99386.16;;;10.31;70.18
68301;BME280;55146;47.468;18.806;2023-02-24T08:41:19;99389.81;;;10.50;69.22
68301;BME280;55146;47.468;18.806;2023-02-24T08:43:53;99389.31;;;10.72;69.21
68301;BME280;55146;47.468;18.806;2023-02-24T08:46:21;99391.28;;;10.90;67.98
68301;BME280;55146;47.468;18.806;2023-02-24T08:48:58;99393.78;;;11.10;67.86
68301;BME280;55146;47.468;18.806;2023-02-24T08:51:36;99385.19;;;11.35;67.44
68301;BME280;55146;47.468;18.806;2023-02-24T08:54:20;99385.56;;;11.29;66.97
68301;BME280;55146;47.468;18.806;2023-02-24T08:56:53;99379.34;;;11.37;66.60
68301;BME280;55146;47.468;18.806;2023-02-24T08:59:24;99368.78;;;11.44;66.32
68301;BME280;55146;47.468;18.806;2023-02-24T09:01:57;99378.91;;;11.49;66.81
68301;BME280;55146;47.468;18.806;2023-02-24T09:04:47;99369.75;;;11.72;66.00
68301;BME280;55146;47.468;18.806;2023-02-24T09:07:19;99366.41;;;11.94;65.16
68301;BME280;55146;47.468;18.806;2023-02-24T09:09:45;99357.34;;;12.07;65.14
68301;BME280;55146;47.468;18.806;2023-02-24T09:12:12;99357.56;;;12.10;64.60
68301;BME280;55146;47.468;18.806;2023-02-24T09:14:47;99359.34;;;11.88;65.26
68301;BME280;55146;47.468;18.806;2023-02-24T09:17:14;99354.44;;;11.85;66.92
68301;BME280;55146;47.468;18.806;2023-02-24T09:19:47;99349.56;;;11.95;66.09
68301;BME280;55146;47.468;18.806;2023-02-24T09:22:24;99353.25;;;12.04;65.36
68301;BME280;55146;47.468;18.806;2023-02-24T09:25:04;99344.53;;;11.97;65.58
68301;BME280;55146;47.468;18.806;2023-02-24T09:27:44;99355.91;;;11.96;66.06
68301;BME280;55146;47.468;18.806;2023-02-24T09:30:12;99344.97;;;11.72;66.21
68301;BME280;55146;47.468;18.806;2023-02-24T09:32:57;99335.16;;;11.66;66.25
68301;BME280;55146;47.468;18.806;2023-02-24T09:35:28;99334.19;;;11.75;67.51
68301;BME280;55146;47.468;18.806;2023-02-24T09:38:01;99332.78;;;11.92;66.44
68301;BME280;55146;47.468;18.806;2023-02-24T09:40:31;99331.03;;;11.82;66.72
68301;BME280;55146;47.468;18.806;2023-02-24T09:43:07;99331.25;;;11.86;66.13
68301;BME280;55146;47.468;18.806;2023-02-24T09:45:53;99335.78;;;11.95;66.62
68301;BME280;55146;47.468;18.806;2023-02-24T09:48:54;99331.00;;;12.01;66.16
68301;BME280;55146;47.468;18.806;2023-02-24T09:51:30;99326.72;;;12.08;65.84
68301;BME280;55146;47.468;18.806;2023-02-24T09:54:12;99326.00;;;12.16;65.43
68301;BME280;55146;47.468;18.806;2023-02-24T09:56:41;99328.06;;;12.25;65.37
68301;BME280;55146;47.468;18.806;2023-02-24T09:59:32;99326.66;;;12.27;66.34
68301;BME280;55146;47.468;18.806;2023-02-24T10:02:52;99328.50;;;12.32;65.96
68301;BME280;55146;47.468;18.806;2023-02-24T10:08:06;99325.94;;;12.22;65.91
68301;BME280;55146;47.468;18.806;2023-02-24T10:10:38;99310.09;;;12.41;66.97
68301;BME280;55146;47.468;18.806;2023-02-24T10:13:25;99299.78;;;12.74;65.94
68301;BME280;55146;47.468;18.806;2023-02-24T10:16:02;99292.09;;;12.98;64.25
68301;BME280;55146;47.468;18.806;2023-02-24T10:26:37;99292.44;;;12.55;65.38
68301;BME280;55146;47.468;18.806;2023-02-24T10:29:32;99281.56;;;13.00;64.83
68301;BME280;55146;47.468;18.806;2023-02-24T10:32:42;99281.75;;;13.17;63.99
68301;BME280;55146;47.468;18.806;2023-02-24T10:35:16;99271.16;;;13.33;64.21
68301;BME280;55146;47.468;18.806;2023-02-24T10:37:42;99273.88;;;13.69;62.91
68301;BME280;55146;47.468;18.806;2023-02-24T10:40:08;99263.88;;;14.12;62.78
68301;BME280;55146;47.468;18.806;2023-02-24T10:42:35;99261.09;;;14.52;60.57
68301;BME280;55146;47.468;18.806;2023-02-24T10:45:25;99252.41;;;14.84;58.74
68301;BME280;55146;47.468;18.806;2023-02-24T10:47:55;99239.72;;;15.09;58.74
68301;BME280;55146;47.468;18.806;2023-02-24T10:52:51;99237.09;;;15.38;57.63
68301;BME280;55146;47.468;18.806;2023-02-24T10:57:53;99222.75;;;15.62;57.50
68301;BME280;55146;47.468;18.806;2023-02-24T11:00:26;99217.06;;;15.33;57.61
68301;BME280;55146;47.468;18.806;2023-02-24T11:03:15;99210.22;;;15.22;57.03
68301;BME280;55146;47.468;18.806;2023-02-24T11:05:49;99200.28;;;15.12;57.77
68301;BME280;55146;47.468;18.806;2023-02-24T11:08:34;99201.06;;;15.38;56.99
68301;BME280;55146;47.468;18.806;2023-02-24T11:11:22;99196.22;;;15.35;57.65
68301;BME280;55146;47.468;18.806;2023-02-24T11:13:57;99186.53;;;15.50;58.42
68301;BME280;55146;47.468;18.806;2023-02-24T11:19:31;99187.81;;;15.78;56.03
68301;BME280;55146;47.468;18.806;2023-02-24T11:21:57;99182.03;;;15.20;58.45
68301;BME280;55146;47.468;18.806;2023-02-24T11:24:24;99176.31;;;15.33;58.47
68301;BME280;55146;47.468;18.806;2023-02-24T11:26:50;99168.13;;;15.37;58.23
68301;BME280;55146;47.468;18.806;2023-02-24T11:32:31;99156.50;;;15.78;58.21
68301;BME280;55146;47.468;18.806;2023-02-24T11:35:20;99150.47;;;16.14;56.17
68301;BME280;55146;47.468;18.806;2023-02-24T11:40:31;99140.81;;;16.20;55.39
68301;BME280;55146;47.468;18.806;2023-02-24T11:43:22;99134.53;;;15.64;56.37
68301;BME280;55146;47.468;18.806;2023-02-24T11:45:54;99132.25;;;15.58;56.69
68301;BME280;55146;47.468;18.806;2023-02-24T11:48:46;99133.75;;;15.55;56.81
68301;BME280;55146;47.468;18.806;2023-02-24T11:51:31;99126.09;;;15.52;56.46
68301;BME280;55146;47.468;18.806;2023-02-24T11:54:03;99125.47;;;15.29;57.83
68301;BME280;55146;47.468;18.806;2023-02-24T11:56:34;99119.53;;;15.57;57.44
68301;BME280;55146;47.468;18.806;2023-02-24T12:02:04;99101.16;;;16.11;55.64
68301;BME280;55146;47.468;18.806;2023-02-24T12:09:52;99092.00;;;16.19;55.42
68301;BME280;55146;47.468;18.806;2023-02-24T12:12:23;99084.38;;;16.37;55.11
68301;BME280;55146;47.468;18.806;2023-02-24T12:15:01;99076.50;;;16.18;54.75
68301;BME280;55146;47.468;18.806;2023-02-24T12:20:06;99067.31;;;16.26;54.84
68301;BME280;55146;47.468;18.806;2023-02-24T12:23:00;99065.22;;;16.23;54.66
68301;BME280;55146;47.468;18.806;2023-02-24T12:25:31;99064.94;;;16.37;55.08
68301;BME280;55146;47.468;18.806;2023-02-24T12:28:22;99058.44;;;16.53;54.11
68301;BME280;55146;47.468;18.806;2023-02-24T12:33:45;99054.47;;;16.63;53.47
68301;BME280;55146;47.468;18.806;2023-02-24T12:45:00;99040.41;;;15.97;53.41
68301;BME280;55146;47.468;18.806;2023-02-24T12:55:30;99024.97;;;15.12;55.71
68301;BME280;55146;47.468;18.806;2023-02-24T12:58:18;99037.41;;;14.80;56.12
68301;BME280;55146;47.468;18.806;2023-02-24T13:00:57;99030.56;;;14.77;56.19
68301;BME280;55146;47.468;18.806;2023-02-24T13:03:48;99019.53;;;14.69;56.05
68301;BME280;55146;47.468;18.806;2023-02-24T13:09:10;99025.22;;;14.46;56.12
68301;BME280;55146;47.468;18.806;2023-02-24T13:11:51;99022.75;;;14.36;56.06
68301;BME280;55146;47.468;18.806;2023-02-24T13:14:30;99021.16;;;14.44;55.41
68301;BME280;55146;47.468;18.806;2023-02-24T13:19:30;99006.66;;;14.30;55.29
68301;BME280;55146;47.468;18.806;2023-02-24T13:24:33;98996.69;;;14.20;55.15
68301;BME280;55146;47.468;18.806;2023-02-24T13:27:34;98998.81;;;13.97;55.81
68301;BME280;55146;47.468;18.806;2023-02-24T13:30:05;98992.47;;;14.05;55.83
68301;BME280;55146;47.468;18.806;2023-02-24T13:32:34;98986.63;;;13.98;55.73
68301;BME280;55146;47.468;18.806;2023-02-24T13:37:39;98978.66;;;14.05;56.12
68301;BME280;55146;47.468;18.806;2023-02-24T13:43:03;98985.66;;;14.11;53.94
68301;BME280;55146;47.468;18.806;2023-02-24T13:45:34;98979.31;;;14.37;52.47
68301;BME280;55146;47.468;18.806;2023-02-24T13:48:35;98969.22;;;14.41;52.63
68301;BME280;55146;47.468;18.806;2023-02-24T13:57:21;98963.19;;;14.56;52.57
68301;BME280;55146;47.468;18.806;2023-02-24T14:00:27;98957.00;;;14.59;52.52
68301;BME280;55146;47.468;18.806;2023-02-24T14:02:47;98954.41;;;14.63;52.40
68301;BME280;55146;47.468;18.806;2023-02-24T14:05:33;98947.69;;;14.64;51.69
68301;BME280;55146;47.468;18.806;2023-02-24T14:08:00;98940.22;;;14.64;51.15
68301;BME280;55146;47.468;18.806;2023-02-24T14:10:30;98937.12;;;14.57;51.96
68301;BME280;55146;47.468;18.806;2023-02-24T14:13:12;98934.84;;;14.59;51.80
68301;BME280;55146;47.468;18.806;2023-02-24T14:15:40;98932.09;;;14.50;52.55
68301;BME280;55146;47.468;18.806;2023-02-24T14:18:17;98926.72;;;14.54;52.28
68301;BME280;55146;47.468;18.806;2023-02-24T14:20:43;98924.09;;;14.57;50.94
68301;BME280;55146;47.468;18.806;2023-02-24T14:25:46;98923.97;;;14.54;51.43
68301;BME280;55146;47.468;18.806;2023-02-24T14:28:21;98916.94;;;14.56;52.46
68301;BME280;55146;47.468;18.806;2023-02-24T14:30:59;98911.25;;;14.62;52.10
68301;BME280;55146;47.468;18.806;2023-02-24T14:33:32;98904.41;;;14.68;51.98
68301;BME280;55146;47.468;18.806;2023-02-24T14:35:59;98909.56;;;14.69;52.23
68301;BME280;55146;47.468;18.806;2023-02-24T14:41:00;98896.72;;;14.65;53.26
68301;BME280;55146;47.468;18.806;2023-02-24T14:43:26;98890.38;;;14.64;53.72
68301;BME280;55146;47.468;18.806;2023-02-24T14:45:52;98896.09;;;14.68;52.41
68301;BME280;55146;47.468;18.806;2023-02-24T14:48:29;98892.38;;;14.55;52.72
68301;BME280;55146;47.468;18.806;2023-02-24T14:51:00;98886.16;;;14.67;52.53
68301;BME280;55146;47.468;18.806;2023-02-24T14:53:27;98877.19;;;14.70;52.21
68301;BME280;55146;47.468;18.806;2023-02-24T14:55:56;98875.56;;;14.69;51.67
68301;BME280;55146;47.468;18.806;2023-02-24T14:58:30;98874.59;;;14.65;52.01
68301;BME280;55146;47.468;18.806;2023-02-24T15:01:06;98858.66;;;14.62;52.36
68301;BME280;55146;47.468;18.806;2023-02-24T15:03:45;98864.34;;;14.65;51.67
68301;BME280;55146;47.468;18.806;2023-02-24T15:06:19;98859.34;;;14.50;52.69
68301;BME280;55146;47.468;18.806;2023-02-24T15:09:14;98861.94;;;14.55;52.35
68301;BME280;55146;47.468;18.806;2023-02-24T15:11:40;98859.03;;;14.43;52.59
68301;BME280;55146;47.468;18.806;2023-02-24T15:14:20;98861.31;;;14.32;53.18
68301;BME280;55146;47.468;18.806;2023-02-24T15:16:50;98866.53;;;14.42;53.16
68301;BME280;55146;47.468;18.806;2023-02-24T15:21:51;98853.34;;;14.39;53.28
68301;BME280;55146;47.468;18.806;2023-02-24T15:24:28;98846.19;;;14.38;53.31
68301;BME280;55146;47.468;18.806;2023-02-24T15:27:19;98840.03;;;14.24;53.86